Time;durP1;ratioP1;P1;durP2;ratioP2;P2;SDS_P1;SDS_P2;PMS_P1;PMS_P2;Temp;Humidity;BMP_temperature;BMP_pressure;BME280_temperature;BME280_humidity;BME280_pressure;Samples;Min_cycle;Max_cycle;Signal;HPM_P1;HPM_P2
2022/02/17 00:00:38;;;;;;;;;;;;;;;17.72;56.50;100416.44;2037211;28;20148;-42
2022/02/17 00:01:38;;;;;;;;;;;;;;;17.72;56.74;100416.44;2036191;28;20436;-43
2022/02/17 00:02:42;;;;;;;;;;;;;;;17.71;56.70;100422.88;1972622;28;1898034;-42
2022/02/17 00:03:42;;;;;;;;;;;;;;;17.71;56.56;100417.44;2040721;28;19926;-42
2022/02/17 00:04:42;;;;;;;;;;;;;;;17.71;56.70;100409.25;2036015;28;20465;-42
2022/02/17 00:05:43;;;;;;;;;;;;;;;17.70;56.75;100415.72;2038792;28;20096;-42
2022/02/17 00:06:43;;;;;;;;;;;;;;;17.70;56.76;100418.44;2038728;28;20767;-41
2022/02/17 00:07:44;;;;;;;;;;;;;;;17.68;56.81;100407.66;2035372;28;19926;-40
2022/02/17 00:08:44;;;;;;;;;;;;;;;17.70;56.66;100421.16;2040799;28;20024;-42
2022/02/17 00:09:44;;;;;;;;;;;;;;;17.67;56.70;100418.72;2036861;28;19918;-41
2022/02/17 00:10:45;;;;;;;;;;;;;;;17.68;56.90;100414.97;2035924;28;19937;-41
2022/02/17 00:11:45;;;;;;;;;;;;;;;17.67;56.81;100413.25;2037343;28;19933;-41
2022/02/17 00:12:46;;;;;;;;;;;;;;;17.65;56.75;100416.09;2035721;28;19927;-42
2022/02/17 00:13:46;;;;;;;;;;;;;;;17.65;56.72;100420.69;2037328;28;19914;-41
2022/02/17 00:14:46;;;;;;;;;;;;;;;17.63;56.75;100418.09;2037272;28;19934;-42
2022/02/17 00:15:47;;;;;;;;;;;;;;;17.63;56.68;100418.09;2036318;28;20093;-42
2022/02/17 00:16:48;;;;;;;;;;;;;;;17.63;56.95;100414.50;2039419;28;20528;-42
2022/02/17 00:17:48;;;;;;;;;;;;;;;17.63;57.00;100420.81;2037314;28;20393;-42
2022/02/17 00:18:49;;;;;;;;;;;;;;;17.62;57.07;100415.53;2038808;28;19931;-43
2022/02/17 00:19:49;;;;;;;;;;;;;;;17.62;56.82;100415.53;2037867;28;21491;-42
2022/02/17 00:20:55;;;;;;;;;;;;;;;17.62;56.78;100415.53;2035425;28;19937;-42
2022/02/17 00:21:56;;;;;;;;;;;;;;;17.62;56.88;100415.53;2037010;28;19933;-42
2022/02/17 00:22:56;;;;;;;;;;;;;;;17.61;56.86;100417.34;2036922;28;19922;-41
2022/02/17 00:23:57;;;;;;;;;;;;;;;17.61;57.11;100419.22;2040341;28;19922;-42
2022/02/17 00:24:57;;;;;;;;;;;;;;;17.60;56.75;100420.22;2037458;28;19992;-41
2022/02/17 00:25:57;;;;;;;;;;;;;;;17.61;56.88;100422.81;2037763;28;19929;-41
2022/02/17 00:26:58;;;;;;;;;;;;;;;17.61;57.06;100419.22;2041990;28;19926;-41
2022/02/17 00:27:58;;;;;;;;;;;;;;;17.61;57.00;100416.50;2038357;28;19966;-41
2022/02/17 00:29:00;;;;;;;;;;;;;;;17.61;56.84;100413.78;2039214;28;19929;-41
2022/02/17 00:30:01;;;;;;;;;;;;;;;17.61;57.03;100419.22;2037777;28;19922;-41
2022/02/17 00:31:01;;;;;;;;;;;;;;;17.62;56.94;100420.97;2038784;28;19926;-41
2022/02/17 00:32:01;;;;;;;;;;;;;;;17.61;56.96;100411.91;2041070;28;20494;-43
2022/02/17 00:33:02;;;;;;;;;;;;;;;17.61;56.93;100411.03;2041485;28;19914;-41
2022/02/17 00:34:02;;;;;;;;;;;;;;;17.60;56.88;100412.91;2040841;28;19981;-42
2022/02/17 00:35:03;;;;;;;;;;;;;;;17.59;56.87;100408.47;2039375;28;20026;-41
2022/02/17 00:36:05;;;;;;;;;;;;;;;17.60;57.12;100417.50;2038044;28;19930;-41
2022/02/17 00:37:05;;;;;;;;;;;;;;;17.60;57.05;100422.97;2039732;28;19917;-42
2022/02/17 00:38:05;;;;;;;;;;;;;;;17.60;57.04;100420.22;2039490;28;19933;-41
2022/02/17 00:39:05;;;;;;;;;;;;;;;17.60;57.06;100428.41;2035065;28;19953;-43
2022/02/17 00:40:06;;;;;;;;;;;;;;;17.60;56.92;100420.22;2039772;28;20347;-42
2022/02/17 00:41:06;;;;;;;;;;;;;;;17.58;56.85;100426.66;2036033;28;20339;-42
2022/02/17 00:42:07;;;;;;;;;;;;;;;17.58;56.91;100426.66;2035964;28;20326;-43
2022/02/17 00:43:07;;;;;;;;;;;;;;;17.58;56.86;100432.13;2036326;28;19965;-42
2022/02/17 00:44:07;;;;;;;;;;;;;;;17.57;57.09;100433.13;2036362;28;19968;-41
2022/02/17 00:45:08;;;;;;;;;;;;;;;17.58;57.19;100429.38;2036697;28;19929;-43
2022/02/17 00:46:08;;;;;;;;;;;;;;;17.58;57.00;100425.81;2035460;28;21183;-42
2022/02/17 00:47:11;;;;;;;;;;;;;;;17.57;57.22;100433.13;2036134;28;19922;-42
2022/02/17 00:48:11;;;;;;;;;;;;;;;17.57;56.92;100435.00;2037378;28;19922;-41
2022/02/17 00:49:11;;;;;;;;;;;;;;;17.57;57.06;100438.56;2037333;28;20704;-41
2022/02/17 00:50:12;;;;;;;;;;;;;;;17.57;56.97;100435.84;2036376;28;19927;-42
2022/02/17 00:51:13;;;;;;;;;;;;;;;17.56;57.16;100428.69;2034965;28;20417;-41
2022/02/17 00:52:14;;;;;;;;;;;;;;;17.56;57.02;100433.25;2035999;28;20100;-41
2022/02/17 00:53:14;;;;;;;;;;;;;;;17.55;57.06;100423.34;2034579;28;20376;-42
2022/02/17 00:54:14;;;;;;;;;;;;;;;17.55;57.09;100426.94;2032432;28;20250;-41
2022/02/17 00:55:15;;;;;;;;;;;;;;;17.56;57.06;100428.69;2032504;28;19976;-41
2022/02/17 00:56:15;;;;;;;;;;;;;;;17.53;56.99;100428.94;2039838;28;19958;-42
2022/02/17 00:57:15;;;;;;;;;;;;;;;17.54;57.03;100424.34;2033289;28;19929;-42
2022/02/17 00:58:15;;;;;;;;;;;;;;;17.53;56.91;100428.94;2033648;29;20510;-41
2022/02/17 00:59:16;;;;;;;;;;;;;;;17.52;57.12;100432.66;2035884;28;19937;-42
2022/02/17 01:00:16;;;;;;;;;;;;;;;17.52;57.20;100431.81;2034871;28;19919;-42
2022/02/17 01:01:17;;;;;;;;;;;;;;;17.51;57.28;100430.91;2034910;29;19914;-41
2022/02/17 01:02:17;;;;;;;;;;;;;;;17.50;57.13;100433.78;2034288;28;20411;-43
2022/02/17 01:03:18;;;;;;;;;;;;;;;17.50;57.28;100431.06;2037937;28;20715;-41
2022/02/17 01:04:18;;;;;;;;;;;;;;;17.50;57.32;100445.56;2033783;28;19922;-42
2022/02/17 01:05:18;;;;;;;;;;;;;;;17.50;57.33;100436.50;2036512;28;20729;-41
2022/02/17 01:06:19;;;;;;;;;;;;;;;17.48;57.43;100436.63;2034813;28;20005;-41
2022/02/17 01:07:19;;;;;;;;;;;;;;;17.49;57.18;100434.78;2037288;28;20187;-40
2022/02/17 01:08:19;;;;;;;;;;;;;;;17.47;57.19;100440.38;2036366;28;20385;-43
2022/02/17 01:09:20;;;;;;;;;;;;;;;17.48;57.26;100439.38;2032580;28;20031;-41
2022/02/17 01:10:20;;;;;;;;;;;;;;;17.46;57.32;100433.16;2033242;28;19923;-40
2022/02/17 01:11:20;;;;;;;;;;;;;;;17.47;57.16;100437.66;2036273;28;19981;-41
2022/02/17 01:12:21;;;;;;;;;;;;;;;17.47;57.33;100440.38;2035880;28;20191;-42
2022/02/17 01:13:23;;;;;;;;;;;;;;;17.47;57.09;100434.91;2040326;28;19922;-41
2022/02/17 01:14:23;;;;;;;;;;;;;;;17.47;57.22;100437.66;2039161;28;20311;-41
2022/02/17 01:15:23;;;;;;;;;;;;;;;17.47;57.22;100434.91;2036212;28;20025;-41
2022/02/17 01:16:24;;;;;;;;;;;;;;;17.48;57.09;100425.72;2036517;28;19971;-42
2022/02/17 01:17:24;;;;;;;;;;;;;;;17.47;57.40;100429.47;2035868;28;20191;-42
2022/02/17 01:18:24;;;;;;;;;;;;;;;17.48;57.13;100424.88;2039406;28;19937;-42
2022/02/17 01:19:25;;;;;;;;;;;;;;;17.47;57.33;100429.47;2036404;28;20356;-42
2022/02/17 01:20:26;;;;;;;;;;;;;;;17.46;57.03;100425.00;2035157;28;19922;-41
2022/02/17 01:21:26;;;;;;;;;;;;;;;17.47;57.25;100432.19;2036504;28;19922;-42
2022/02/17 01:22:26;;;;;;;;;;;;;;;17.48;57.14;100425.72;2034199;28;19918;-42
2022/02/17 01:23:28;;;;;;;;;;;;;;;17.47;57.42;100429.47;2035995;28;20265;-42
2022/02/17 01:24:28;;;;;;;;;;;;;;;17.47;57.43;100424.00;2036119;28;19922;-41
2022/02/17 01:25:29;;;;;;;;;;;;;;;17.46;57.26;100425.00;2036030;28;20385;-41
2022/02/17 01:26:29;;;;;;;;;;;;;;;17.48;57.27;100424.88;2035581;28;19950;-41
2022/02/17 01:27:31;;;;;;;;;;;;;;;17.48;57.27;100425.72;2041770;28;20253;-41
2022/02/17 01:28:33;;;;;;;;;;;;;;;17.46;57.09;100427.72;2044239;28;19929;-42
2022/02/17 01:29:33;;;;;;;;;;;;;;;17.46;57.42;100425.00;2037037;28;20987;-41
2022/02/17 01:30:35;;;;;;;;;;;;;;;17.46;57.50;100427.72;2033336;28;19926;-42
2022/02/17 01:31:35;;;;;;;;;;;;;;;17.45;57.33;100426.00;2035853;28;19926;-40
2022/02/17 01:32:36;;;;;;;;;;;;;;;17.47;57.32;100428.59;2036598;28;19970;-42
2022/02/17 01:33:36;;;;;;;;;;;;;;;17.46;57.44;100422.28;2035656;29;19934;-43
2022/02/17 01:34:37;;;;;;;;;;;;;;;17.45;57.20;100426.00;2036165;28;19976;-41
2022/02/17 01:35:37;;;;;;;;;;;;;;;17.44;57.39;100418.84;2037856;28;20140;-41
2022/02/17 01:36:37;;;;;;;;;;;;;;;17.45;57.33;100420.56;2036699;28;20621;-42
2022/02/17 01:37:38;;;;;;;;;;;;;;;17.45;57.23;100425.16;2037278;28;19930;-43
2022/02/17 01:38:39;;;;;;;;;;;;;;;17.45;57.33;100426.00;2035691;28;20304;-42
2022/02/17 01:39:40;;;;;;;;;;;;;;;17.45;57.47;100420.56;2035996;28;20282;-41
2022/02/17 01:40:40;;;;;;;;;;;;;;;17.44;57.38;100418.84;2035619;28;20366;-41
2022/02/17 01:41:40;;;;;;;;;;;;;;;17.43;57.39;100419.81;2035935;29;19914;-41
2022/02/17 01:42:40;;;;;;;;;;;;;;;17.42;57.32;100414.47;2035724;28;19915;-42
2022/02/17 01:43:41;;;;;;;;;;;;;;;17.41;57.42;100413.63;2036178;28;19922;-41
2022/02/17 01:44:41;;;;;;;;;;;;;;;17.41;57.36;100424.53;2035641;28;19919;-42
2022/02/17 01:45:45;;;;;;;;;;;;;;;17.40;57.51;100420.09;2037079;28;19962;-42
2022/02/17 01:46:46;;;;;;;;;;;;;;;17.41;57.40;100429.13;2034449;28;19918;-42
2022/02/17 01:47:47;;;;;;;;;;;;;;;17.40;57.43;100414.63;2035574;28;19934;-41
2022/02/17 01:48:48;;;;;;;;;;;;;;;17.39;57.52;100421.06;2037402;28;19926;-42
2022/02/17 01:49:48;;;;;;;;;;;;;;;17.39;57.38;100426.50;2034767;29;19928;-41
2022/02/17 01:50:49;;;;;;;;;;;;;;;17.39;57.41;100418.34;2035760;28;19923;-41
2022/02/17 01:51:49;;;;;;;;;;;;;;;17.37;57.55;100414.91;2034658;28;20262;-42
2022/02/17 01:52:49;;;;;;;;;;;;;;;17.38;57.44;100419.34;2035281;28;19951;-41
2022/02/17 01:53:50;;;;;;;;;;;;;;;17.37;57.61;100417.63;2037317;28;19926;-43
2022/02/17 01:54:50;;;;;;;;;;;;;;;17.36;57.33;100415.88;2036758;29;19945;-41
2022/02/17 01:55:52;;;;;;;;;;;;;;;17.37;57.59;100417.63;2036169;28;19929;-41
2022/02/17 01:56:55;;;;;;;;;;;;;;;17.37;57.69;100423.09;2041355;28;19970;-42
2022/02/17 01:57:55;;;;;;;;;;;;;;;17.36;57.50;100415.88;2042859;28;20344;-42
2022/02/17 01:58:55;;;;;;;;;;;;;;;17.36;57.35;100418.59;2038758;28;19925;-44
2022/02/17 01:59:56;;;;;;;;;;;;;;;17.36;57.49;100422.19;2038017;28;19930;-41
2022/02/17 02:00:56;;;;;;;;;;;;;;;17.36;57.50;100416.75;2040684;28;20237;-42
2022/02/17 02:01:57;;;;;;;;;;;;;;;17.38;57.46;100424.78;2039127;28;19922;-41
2022/02/17 02:02:57;;;;;;;;;;;;;;;17.38;57.59;100416.63;2033813;28;19927;-41
2022/02/17 02:03:57;;;;;;;;;;;;;;;17.39;57.40;100431.09;2035096;28;19929;-42
2022/02/17 02:04:58;;;;;;;;;;;;;;;17.37;57.63;100423.09;2036197;28;20322;-41
2022/02/17 02:05:59;;;;;;;;;;;;;;;17.38;57.45;100418.50;2036705;28;19925;-42
2022/02/17 02:06:59;;;;;;;;;;;;;;;17.38;57.50;100424.78;2029901;29;19938;-42
2022/02/17 02:08:00;;;;;;;;;;;;;;;17.39;57.73;100431.09;2035900;28;20021;-41
2022/02/17 02:09:01;;;;;;;;;;;;;;;17.38;57.42;100422.06;2035338;28;20266;-41
2022/02/17 02:10:01;;;;;;;;;;;;;;;17.38;57.60;100432.97;2029730;28;19978;-41
2022/02/17 02:11:02;;;;;;;;;;;;;;;17.36;57.54;100427.63;2036584;28;19929;-42
2022/02/17 02:12:03;;;;;;;;;;;;;;;17.38;57.40;100435.69;2035731;29;19922;-41
2022/02/17 02:13:03;;;;;;;;;;;;;;;17.38;57.25;100435.69;2041122;28;19914;-41
2022/02/17 02:14:12;;;;;;;;;;;;;;;17.36;57.71;100432.22;2044168;28;19929;-42
2022/02/17 02:15:14;;;;;;;;;;;;;;;17.36;57.43;100421.34;2034803;28;19965;-42
2022/02/17 02:16:14;;;;;;;;;;;;;;;17.36;57.55;100424.06;2035616;28;19938;-42
2022/02/17 02:17:14;;;;;;;;;;;;;;;17.35;57.50;100431.38;2034002;29;19929;-41
2022/02/17 02:18:16;;;;;;;;;;;;;;;17.36;57.64;100426.78;2036487;28;20013;-41
2022/02/17 02:19:16;;;;;;;;;;;;;;;17.36;57.63;100421.34;2035447;29;20530;-41
2022/02/17 02:20:17;;;;;;;;;;;;;;;17.36;57.44;100426.78;2035628;28;19929;-41
2022/02/17 02:21:22;;;;;;;;;;;;;;;17.35;57.60;100419.63;2036013;28;20009;-41
2022/02/17 02:22:22;;;;;;;;;;;;;;;17.35;57.53;100425.06;2036730;28;19922;-42
2022/02/17 02:23:23;;;;;;;;;;;;;;;17.34;57.60;100418.75;2034519;28;19919;-43
2022/02/17 02:24:23;;;;;;;;;;;;;;;17.35;57.50;100425.94;2036251;29;19978;-42
2022/02/17 02:25:24;;;;;;;;;;;;;;;17.34;57.70;100423.31;2035376;28;19954;-42
2022/02/17 02:26:24;;;;;;;;;;;;;;;17.33;57.62;100425.19;2035493;28;19985;-42
2022/02/17 02:27:25;;;;;;;;;;;;;;;17.33;57.65;100427.91;2035241;28;19962;-42
2022/02/17 02:28:26;;;;;;;;;;;;;;;17.31;57.76;100424.44;2034262;28;19954;-42
2022/02/17 02:29:27;;;;;;;;;;;;;;;17.32;57.54;100428.03;2036544;28;19923;-41
2022/02/17 02:30:27;;;;;;;;;;;;;;;17.31;57.79;100423.59;2034493;28;20253;-42
2022/02/17 02:31:28;;;;;;;;;;;;;;;17.29;57.84;100420.13;2035390;28;19926;-42
2022/02/17 02:32:28;;;;;;;;;;;;;;;17.30;57.75;100421.88;2036137;28;19930;-42
2022/02/17 02:33:28;;;;;;;;;;;;;;;17.30;57.56;100419.16;2033993;28;20861;-42
2022/02/17 02:34:28;;;;;;;;;;;;;;;17.30;57.78;100421.88;2036435;28;19922;-41
2022/02/17 02:35:29;;;;;;;;;;;;;;;17.29;57.60;100422.84;2036611;28;19922;-42
2022/02/17 02:36:29;;;;;;;;;;;;;;;17.29;57.69;100415.53;2036255;28;19927;-43
2022/02/17 02:37:29;;;;;;;;;;;;;;;17.28;57.72;100418.41;2037829;28;20624;-41
2022/02/17 02:38:30;;;;;;;;;;;;;;;17.28;57.67;100419.25;2032684;28;20349;-42
2022/02/17 02:39:31;;;;;;;;;;;;;;;17.28;57.77;100419.25;2042210;28;20007;-43
2022/02/17 02:40:31;;;;;;;;;;;;;;;17.28;57.78;100412.97;2040958;28;19923;-41
2022/02/17 02:41:32;;;;;;;;;;;;;;;17.27;57.77;100411.22;2038020;28;19930;-41
2022/02/17 02:42:32;;;;;;;;;;;;;;;17.28;57.72;100418.41;2034419;28;19922;-41
2022/02/17 02:43:33;;;;;;;;;;;;;;;17.28;57.84;100419.25;2032800;28;19911;-41
2022/02/17 02:44:34;;;;;;;;;;;;;;;17.27;57.80;100417.53;2033322;28;19938;-41
2022/02/17 02:45:35;;;;;;;;;;;;;;;17.28;57.77;100418.41;2036395;28;19919;-41
2022/02/17 02:46:35;;;;;;;;;;;;;;;17.28;57.70;100418.41;2034371;28;19932;-41
2022/02/17 02:47:35;;;;;;;;;;;;;;;17.27;57.69;100414.81;2045152;28;20250;-41
2022/02/17 02:48:36;;;;;;;;;;;;;;;17.28;57.77;100415.69;2036811;28;20270;-41
2022/02/17 02:49:37;;;;;;;;;;;;;;;17.28;57.76;100408.38;2034058;28;20736;-42
2022/02/17 02:50:38;;;;;;;;;;;;;;;17.27;57.76;100412.09;2033941;28;19958;-41
2022/02/17 02:51:39;;;;;;;;;;;;;;;17.28;57.70;100418.41;2030334;28;19930;-40
2022/02/17 02:52:39;;;;;;;;;;;;;;;17.28;57.70;100407.50;2038606;28;19923;-41
2022/02/17 02:53:39;;;;;;;;;;;;;;;17.27;57.76;100406.66;2034805;28;19929;-42
2022/02/17 02:54:40;;;;;;;;;;;;;;;17.27;57.78;100411.22;2035976;28;20196;-41
2022/02/17 02:55:44;;;;;;;;;;;;;;;17.28;57.71;100407.50;2035852;28;20234;-43
2022/02/17 02:56:44;;;;;;;;;;;;;;;17.27;57.82;100406.66;2037537;28;20352;-41
2022/02/17 02:57:45;;;;;;;;;;;;;;;17.28;57.76;100412.97;2036526;28;19926;-41
2022/02/17 02:58:45;;;;;;;;;;;;;;;17.27;57.78;100406.66;2033581;28;20033;-41
2022/02/17 02:59:45;;;;;;;;;;;;;;;17.27;57.70;100412.09;2036646;28;19914;-42
2022/02/17 03:00:47;;;;;;;;;;;;;;;17.27;57.42;100408.47;2036097;28;20436;-43
2022/02/17 03:01:47;;;;;;;;;;;;;;;17.27;57.68;100403.94;2035296;28;19911;-41
2022/02/17 03:02:47;;;;;;;;;;;;;;;17.27;57.94;100405.75;2037604;28;20339;-41
2022/02/17 03:03:49;;;;;;;;;;;;;;;17.27;57.60;100412.09;2038097;28;19977;-41
2022/02/17 03:04:49;;;;;;;;;;;;;;;17.26;57.79;100404.91;2036593;28;19926;-41
2022/02/17 03:05:49;;;;;;;;;;;;;;;17.26;57.89;100401.31;2037118;28;20310;-41
2022/02/17 03:06:50;;;;;;;;;;;;;;;17.26;57.59;100407.63;2037891;28;19923;-41
2022/02/17 03:07:52;;;;;;;;;;;;;;;17.26;57.75;100406.78;2035638;28;19922;-41
2022/02/17 03:08:52;;;;;;;;;;;;;;;17.26;57.77;100412.22;2033537;28;19926;-41
2022/02/17 03:09:53;;;;;;;;;;;;;;;17.26;57.71;100395.88;2040810;28;19921;-41
2022/02/17 03:10:53;;;;;;;;;;;;;;;17.24;57.74;100401.44;2042924;28;20580;-41
2022/02/17 03:11:54;;;;;;;;;;;;;;;17.24;57.81;100404.16;2046338;28;19926;-41
2022/02/17 03:12:54;;;;;;;;;;;;;;;17.24;57.71;100401.44;2036400;28;20431;-41
2022/02/17 03:13:55;;;;;;;;;;;;;;;17.22;57.86;100403.47;2039842;28;19919;-41
2022/02/17 03:14:56;;;;;;;;;;;;;;;17.22;58.10;100403.47;2033947;28;20571;-41
2022/02/17 03:15:56;;;;;;;;;;;;;;;17.21;57.89;100398.97;2036618;28;20160;-42
2022/02/17 03:16:56;;;;;;;;;;;;;;;17.21;58.01;100395.41;2035248;28;19970;-42
2022/02/17 03:17:56;;;;;;;;;;;;;;;17.20;58.11;100405.44;2035786;28;20331;-41
2022/02/17 03:18:57;;;;;;;;;;;;;;;17.20;57.97;100397.28;2035608;28;19926;-42
2022/02/17 03:19:57;;;;;;;;;;;;;;;17.21;57.67;100398.13;2036877;28;19914;-41
2022/02/17 03:20:58;;;;;;;;;;;;;;;17.19;58.05;100403.69;2035626;28;19922;-41
2022/02/17 03:21:58;;;;;;;;;;;;;;;17.19;58.06;100402.84;2039263;28;20368;-41
2022/02/17 03:22:58;;;;;;;;;;;;;;;17.18;57.99;100401.97;2038380;28;20000;-42
2022/02/17 03:23:58;;;;;;;;;;;;;;;17.18;58.05;100406.56;2039104;28;19950;-41
2022/02/17 03:24:59;;;;;;;;;;;;;;;17.19;58.04;100400.09;2037961;28;20421;-41
2022/02/17 03:26:00;;;;;;;;;;;;;;;17.18;58.06;100398.41;2036502;28;19914;-41
2022/02/17 03:27:00;;;;;;;;;;;;;;;17.19;58.03;100405.56;2038261;28;19930;-42
2022/02/17 03:28:00;;;;;;;;;;;;;;;17.19;57.98;100409.13;2042800;28;19953;-42
2022/02/17 03:29:00;;;;;;;;;;;;;;;17.19;58.04;100402.84;2042443;28;19937;-41
2022/02/17 03:30:01;;;;;;;;;;;;;;;17.19;57.84;100403.69;2036004;28;20066;-42
2022/02/17 03:31:02;;;;;;;;;;;;;;;17.19;58.06;100405.56;2035115;28;19926;-42
2022/02/17 03:32:02;;;;;;;;;;;;;;;17.20;58.00;100404.56;2034969;28;19925;-42
2022/02/17 03:33:03;;;;;;;;;;;;;;;17.19;57.97;100405.56;2035177;28;19917;-40
2022/02/17 03:34:03;;;;;;;;;;;;;;;17.18;57.92;100396.53;2033236;28;19929;-41
2022/02/17 03:35:04;;;;;;;;;;;;;;;17.19;57.94;100408.28;2035760;28;19918;-41
2022/02/17 03:36:05;;;;;;;;;;;;;;;17.20;57.95;100404.56;2033688;28;19933;-41
2022/02/17 03:37:05;;;;;;;;;;;;;;;17.19;57.81;100406.41;2035993;28;19977;-41
2022/02/17 03:38:06;;;;;;;;;;;;;;;17.19;57.89;100402.84;2036923;28;20325;-40
2022/02/17 03:39:06;;;;;;;;;;;;;;;17.19;57.87;100403.69;2034660;28;19918;-42
2022/02/17 03:40:07;;;;;;;;;;;;;;;17.20;57.75;100399.09;2039674;28;20270;-41
2022/02/17 03:41:07;;;;;;;;;;;;;;;17.20;57.92;100410.88;2036809;28;19934;-41
2022/02/17 03:42:08;;;;;;;;;;;;;;;17.21;57.75;100406.28;2037506;28;19922;-40
2022/02/17 03:43:08;;;;;;;;;;;;;;;17.19;57.68;100403.69;2034326;28;20450;-42
2022/02/17 03:44:08;;;;;;;;;;;;;;;17.21;57.89;100395.41;2035556;28;20104;-41
2022/02/17 03:45:10;;;;;;;;;;;;;;;17.21;57.94;100395.41;2040070;28;20368;-42
2022/02/17 03:46:10;;;;;;;;;;;;;;;17.21;57.95;100406.28;2043278;28;20499;-42
2022/02/17 03:47:10;;;;;;;;;;;;;;;17.21;57.79;100396.25;2035065;28;20329;-42
2022/02/17 03:48:10;;;;;;;;;;;;;;;17.22;57.99;100408.00;2035779;28;20124;-42
2022/02/17 03:49:11;;;;;;;;;;;;;;;17.22;57.87;100405.28;2035937;28;20053;-42
2022/02/17 03:50:11;;;;;;;;;;;;;;;17.23;57.82;100401.59;2036307;28;19922;-42
2022/02/17 03:51:11;;;;;;;;;;;;;;;17.21;57.66;100401.72;2035137;28;20093;-42
2022/02/17 03:52:11;;;;;;;;;;;;;;;17.23;57.77;100401.59;2035051;28;19970;-43
2022/02/17 03:53:12;;;;;;;;;;;;;;;17.23;57.74;100404.31;2035906;28;19929;-41
2022/02/17 03:54:12;;;;;;;;;;;;;;;17.22;57.65;100405.28;2040812;28;20642;-41
2022/02/17 03:55:14;;;;;;;;;;;;;;;17.22;57.73;100408.00;2037712;28;19929;-42
2022/02/17 03:56:14;;;;;;;;;;;;;;;17.22;57.79;100399.84;2041060;28;19922;-42
2022/02/17 03:57:14;;;;;;;;;;;;;;;17.21;57.62;100409.88;2038814;28;20255;-42
2022/02/17 03:59:00;;;;;;;;;;;;;;;17.22;57.43;100402.56;2037946;28;20025;-42
2022/02/17 03:59:35;;;;;;;;;;;;;;;17.22;57.65;100405.28;2035364;28;19961;-41
2022/02/17 04:00:35;;;;;;;;;;;;;;;17.21;57.69;100409.03;2039024;28;19923;-41
2022/02/17 04:01:36;;;;;;;;;;;;;;;17.22;57.70;100410.75;2040569;28;20700;-41
2022/02/17 04:02:37;;;;;;;;;;;;;;;17.19;57.86;100400.97;2034359;28;19933;-41
2022/02/17 04:03:37;;;;;;;;;;;;;;;17.20;57.71;100404.56;2038912;28;20667;-41
2022/02/17 04:04:38;;;;;;;;;;;;;;;17.20;57.88;100404.56;2037021;28;19926;-41
2022/02/17 04:05:38;;;;;;;;;;;;;;;17.20;57.69;100404.56;2037316;28;19962;-42
2022/02/17 04:06:38;;;;;;;;;;;;;;;17.18;57.51;100396.53;2041434;28;19957;-41
2022/02/17 04:07:40;;;;;;;;;;;;;;;17.19;57.86;100402.84;2033114;28;20320;-42
2022/02/17 04:08:40;;;;;;;;;;;;;;;17.18;57.98;100395.66;2037453;28;20285;-41
2022/02/17 04:09:40;;;;;;;;;;;;;;;17.18;57.72;100395.66;2036593;28;19926;-42
2022/02/17 04:10:41;;;;;;;;;;;;;;;17.19;57.87;100397.38;2032917;28;20656;-41
2022/02/17 04:11:41;;;;;;;;;;;;;;;17.17;57.88;100391.19;2036309;28;19922;-41
2022/02/17 04:12:41;;;;;;;;;;;;;;;17.18;57.80;100390.22;2036525;28;20328;-41
2022/02/17 04:13:41;;;;;;;;;;;;;;;17.18;57.73;100387.50;2037516;28;19922;-41
2022/02/17 04:14:42;;;;;;;;;;;;;;;17.18;57.86;100392.94;2036170;28;20760;-42
2022/02/17 04:15:42;;;;;;;;;;;;;;;17.18;57.76;100384.78;2036745;28;19977;-42
2022/02/17 04:16:42;;;;;;;;;;;;;;;17.18;57.80;100396.53;2037531;28;19941;-41
2022/02/17 04:17:43;;;;;;;;;;;;;;;17.18;57.77;100390.22;2038049;28;19922;-41
2022/02/17 04:18:44;;;;;;;;;;;;;;;17.17;57.61;100389.31;2035663;28;19922;-42
2022/02/17 04:19:45;;;;;;;;;;;;;;;17.19;57.83;100394.66;2039113;28;19922;-42
2022/02/17 04:20:45;;;;;;;;;;;;;;;17.18;57.65;100401.13;2036845;29;19929;-42
2022/02/17 04:21:45;;;;;;;;;;;;;;;17.17;57.88;100405.69;2035151;28;19923;-42
2022/02/17 04:22:45;;;;;;;;;;;;;;;17.18;57.79;100396.53;2038699;28;19965;-42
2022/02/17 04:23:46;;;;;;;;;;;;;;;17.17;57.58;100405.69;2036403;28;19926;-41
2022/02/17 04:24:46;;;;;;;;;;;;;;;17.17;57.75;100399.38;2039232;28;19929;-43
2022/02/17 04:25:46;;;;;;;;;;;;;;;17.17;57.57;100405.69;2036619;28;19969;-49
2022/02/17 04:26:47;;;;;;;;;;;;;;;17.18;57.94;100403.84;2036495;28;19929;-49
2022/02/17 04:27:47;;;;;;;;;;;;;;;17.17;57.89;100408.41;2040029;28;19964;-49
2022/02/17 04:28:48;;;;;;;;;;;;;;;17.17;57.92;100411.13;2035750;28;19922;-42
2022/02/17 04:29:48;;;;;;;;;;;;;;;17.17;58.04;100404.81;2038010;28;20076;-41
2022/02/17 04:30:49;;;;;;;;;;;;;;;17.16;57.91;100409.41;2035754;28;20160;-41
2022/02/17 04:31:49;;;;;;;;;;;;;;;17.17;57.67;100404.81;2036911;29;19949;-42
2022/02/17 04:32:49;;;;;;;;;;;;;;;17.16;57.79;100405.81;2036614;28;20145;-42
2022/02/17 04:33:50;;;;;;;;;;;;;;;17.16;57.98;100403.97;2037167;29;19918;-42
2022/02/17 04:34:50;;;;;;;;;;;;;;;17.16;57.61;100409.41;2034771;28;19927;-41
2022/02/17 04:35:50;;;;;;;;;;;;;;;17.16;57.75;100411.28;2037261;28;20592;-43
2022/02/17 04:36:51;;;;;;;;;;;;;;;17.14;57.80;100412.25;2036479;28;20496;-42
2022/02/17 04:37:51;;;;;;;;;;;;;;;17.16;57.86;100405.81;2035718;28;19977;-42
2022/02/17 04:38:51;;;;;;;;;;;;;;;17.14;57.54;100406.81;2036750;29;19922;-41
2022/02/17 04:39:52;;;;;;;;;;;;;;;17.14;57.90;100405.94;2035881;28;20130;-41
2022/02/17 04:42:21;;;;;;;;;;;;;;;17.13;57.63;100399.63;2033978;29;20376;-42
2022/02/17 04:43:21;;;;;;;;;;;;;;;17.12;57.84;100403.38;2035589;28;20169;-41
2022/02/17 04:44:21;;;;;;;;;;;;;;;17.11;57.74;100396.16;2037145;28;20491;-42
2022/02/17 04:45:21;;;;;;;;;;;;;;;17.11;57.72;100407.06;2037978;28;19927;-41
2022/02/17 04:46:23;;;;;;;;;;;;;;;17.10;58.12;100399.91;2035892;28;20324;-41
2022/02/17 04:47:24;;;;;;;;;;;;;;;17.10;58.01;100410.81;2035686;28;20657;-41
2022/02/17 04:48:24;;;;;;;;;;;;;;;17.09;57.75;100403.59;2036063;28;20006;-42
2022/02/17 04:49:24;;;;;;;;;;;;;;;17.10;57.97;100405.34;2037283;28;19961;-41
2022/02/17 04:50:24;;;;;;;;;;;;;;;17.09;58.06;100409.06;2035822;28;19933;-42
2022/02/17 04:51:25;;;;;;;;;;;;;;;17.09;57.92;100410.91;2035733;28;20296;-42
2022/02/17 04:52:25;;;;;;;;;;;;;;;17.09;58.00;100413.63;2035154;28;20009;-42
2022/02/17 04:53:26;;;;;;;;;;;;;;;17.09;57.98;100410.91;2034242;28;19922;-42
2022/02/17 04:54:27;;;;;;;;;;;;;;;17.09;57.98;100419.94;2040467;28;20471;-42
2022/02/17 04:55:27;;;;;;;;;;;;;;;17.09;58.10;100409.06;2035987;28;19922;-43
2022/02/17 04:56:28;;;;;;;;;;;;;;;17.09;57.93;100406.31;2036900;28;19929;-42
2022/02/17 04:57:28;;;;;;;;;;;;;;;17.09;58.05;100405.47;2040727;28;19957;-42
2022/02/17 04:58:29;;;;;;;;;;;;;;;17.09;58.14;100409.06;2036954;28;20368;-43
2022/02/17 04:59:29;;;;;;;;;;;;;;;17.09;57.86;100419.09;2042587;28;19934;-42
2022/02/17 05:00:29;;;;;;;;;;;;;;;17.09;58.13;100406.31;2035596;28;19926;-42
2022/02/17 05:01:30;;;;;;;;;;;;;;;17.09;57.96;100417.22;2037171;28;19914;-41
2022/02/17 05:02:30;;;;;;;;;;;;;;;17.10;57.85;100415.38;2042347;28;19925;-40
2022/02/17 05:03:30;;;;;;;;;;;;;;;17.09;57.87;100411.78;2035638;28;20004;-41
2022/02/17 05:04:30;;;;;;;;;;;;;;;17.09;57.70;100414.50;2037464;28;19923;-41
2022/02/17 05:05:31;;;;;;;;;;;;;;;17.09;57.95;100414.50;2041274;28;19922;-41
2022/02/17 05:06:31;;;;;;;;;;;;;;;17.10;57.96;100424.41;2044794;28;20470;-42
2022/02/17 05:07:32;;;;;;;;;;;;;;;17.09;57.87;100414.50;2038780;28;19922;-42
2022/02/17 05:08:32;;;;;;;;;;;;;;;17.09;57.64;100414.50;2035125;28;19923;-41
2022/02/17 05:09:33;;;;;;;;;;;;;;;17.10;57.69;100415.38;2042545;28;19922;-42
2022/02/17 05:10:35;;;;;;;;;;;;;;;17.09;57.89;100409.06;2035354;28;20334;-43
2022/02/17 05:11:35;;;;;;;;;;;;;;;17.08;57.94;100412.78;2037219;28;20326;-42
2022/02/17 05:12:36;;;;;;;;;;;;;;;17.09;57.94;100414.50;2036175;28;19923;-42